Time;durP1;ratioP1;P1;durP2;ratioP2;P2;SDS_P1;SDS_P2;PMS_P1;PMS_P2;Temp;Humidity;BMP_temperature;BMP_pressure;BME280_temperature;BME280_humidity;BME280_pressure;Samples;Min_cycle;Max_cycle;Signal;HPM_P1;HPM_P2
2022/01/09 00:00:07;;;;;;;11.38;6.33;;;;;;;-0.08;61.71;101012.23;1770916;80;21216;-54
2022/01/09 00:03:15;;;;;;;9.93;5.78;;;;;;;-0.05;61.55;101017.42;1772137;80;21221;-54
2022/01/09 00:06:22;;;;;;;14.58;6.37;;;;;;;0.00;61.53;101013.14;1772772;79;21390;-55
2022/01/09 00:09:29;;;;;;;13.10;6.17;;;;;;;0.05;61.22;101004.27;1772422;79;21240;-54
2022/01/09 00:12:34;;;;;;;13.05;5.87;;;;;;;0.02;61.03;101007.16;1773146;79;21900;-53
2022/01/09 00:15:43;;;;;;;12.05;6.55;;;;;;;0.02;60.98;101000.43;1772599;79;21355;-53
2022/01/09 00:18:47;;;;;;;11.18;5.67;;;;;;;0.03;60.96;100991.89;1772555;80;21339;-54
2022/01/09 00:21:56;;;;;;;15.13;5.72;;;;;;;0.08;61.06;100993.81;1773217;79;21378;-53
2022/01/09 00:25:01;;;;;;;12.80;6.75;;;;;;;0.11;60.71;100998.54;1772631;80;21228;-54
2022/01/09 00:28:06;;;;;;;12.53;6.33;;;;;;;0.12;60.72;100990.84;1772675;80;21387;-53
2022/01/09 00:31:15;;;;;;;13.40;6.22;;;;;;;0.08;60.60;100987.94;1772034;79;21251;-55
2022/01/09 00:34:22;;;;;;;15.05;5.95;;;;;;;0.11;60.81;100985.55;1772088;79;21177;-54
2022/01/09 00:37:26;;;;;;;13.00;5.55;;;;;;;0.17;60.77;100991.89;1772098;79;21370;-53
2022/01/09 00:40:36;;;;;;;12.45;5.12;;;;;;;0.18;60.74;100980.16;1772134;79;21217;-54
2022/01/09 00:43:41;;;;;;;9.78;6.10;;;;;;;0.23;60.68;100979.39;1772712;80;21825;-54
2022/01/09 00:46:49;;;;;;;10.98;6.25;;;;;;;0.25;60.49;100985.08;1772708;79;21367;-54
2022/01/09 00:49:55;;;;;;;13.93;6.05;;;;;;;0.25;60.48;100975.66;1772660;80;21327;-53
2022/01/09 00:53:00;;;;;;;11.05;6.12;;;;;;;0.28;60.44;100976.81;1772869;80;21409;-53
2022/01/09 00:56:07;;;;;;;16.40;6.72;;;;;;;0.34;60.39;100963.42;1772511;79;21421;-53
2022/01/09 00:59:13;;;;;;;11.83;5.95;;;;;;;0.33;60.20;100957.67;1752077;80;21713;-53
2022/01/09 01:02:20;;;;;;;12.15;6.12;;;;;;;0.31;60.16;100957.77;1772471;79;21350;-54
2022/01/09 01:05:26;;;;;;;13.22;6.30;;;;;;;0.22;60.34;100951.63;1770241;79;21379;-53
2022/01/09 01:08:31;;;;;;;13.28;6.08;;;;;;;0.27;60.52;100947.30;1770424;80;21176;-54
2022/01/09 01:11:39;;;;;;;15.80;6.22;;;;;;;0.34;60.51;100951.31;1771011;79;21229;-54
2022/01/09 01:14:47;;;;;;;12.28;5.90;;;;;;;0.34;60.40;100946.80;1782575;80;21189;-53
2022/01/09 01:17:53;;;;;;;11.25;6.00;;;;;;;0.36;60.37;100944.88;1771432;80;21204;-53
2022/01/09 01:21:00;;;;;;;12.28;6.47;;;;;;;0.38;60.45;100938.89;1771134;79;21197;-53
2022/01/09 01:24:08;;;;;;;14.53;6.70;;;;;;;0.45;60.48;100934.86;1770837;80;21205;-54
2022/01/09 01:27:17;;;;;;;17.65;7.00;;;;;;;0.52;60.30;100929.95;1771150;79;21856;-53
2022/01/09 01:30:26;;;;;;;17.73;6.45;;;;;;;0.50;60.25;100926.48;1770922;79;21749;-52
2022/01/09 01:33:31;;;;;;;13.38;5.85;;;;;;;0.53;60.31;100925.80;1770665;80;21183;-55
2022/01/09 01:36:37;;;;;;;11.97;6.35;;;;;;;0.55;60.12;100915.80;1770503;80;21232;-54
2022/01/09 01:39:43;;;;;;;13.00;6.55;;;;;;;0.57;60.01;100914.36;1771002;80;21233;-54
2022/01/09 01:42:50;;;;;;;13.93;6.08;;;;;;;0.57;60.05;100908.47;1771035;80;21256;-53
2022/01/09 01:45:56;;;;;;;12.30;6.53;;;;;;;0.60;59.93;100901.56;1770440;79;21205;-52
2022/01/09 01:49:04;;;;;;;13.15;6.40;;;;;;;0.58;59.96;100895.40;1783403;80;21430;-52
2022/01/09 01:52:10;;;;;;;18.23;7.40;;;;;;;0.60;59.99;100888.09;1770792;79;21296;-54
2022/01/09 01:55:18;;;;;;;12.63;5.58;;;;;;;0.63;60.03;100889.23;1770784;79;21749;-54
2022/01/09 01:58:23;;;;;;;13.53;6.75;;;;;;;0.69;60.01;100885.26;1770958;80;21196;-54
2022/01/09 02:01:29;;;;;;;12.58;5.78;;;;;;;0.73;59.90;100875.52;1771412;79;21414;-55
2022/01/09 02:04:34;;;;;;;13.75;5.95;;;;;;;0.73;59.88;100880.06;1769468;79;21201;-53
2022/01/09 02:07:41;;;;;;;11.33;5.62;;;;;;;0.68;59.78;100873.61;1762181;80;21718;-53
2022/01/09 02:10:48;;;;;;;12.95;5.30;;;;;;;0.66;59.90;100878.25;1771094;79;21450;-54
2022/01/09 02:13:57;;;;;;;14.13;5.65;;;;;;;0.59;59.87;100861.23;1770880;81;21220;-54
2022/01/09 02:17:03;;;;;;;15.72;6.20;;;;;;;0.48;60.13;100870.03;1770875;79;21739;-54
2022/01/09 02:20:09;;;;;;;12.15;6.15;;;;;;;0.40;60.31;100862.09;1763544;81;21184;-54
2022/01/09 02:23:16;;;;;;;15.63;6.62;;;;;;;0.28;60.79;100857.01;1763592;81;21387;-54
2022/01/09 02:26:28;;;;;;;13.62;6.55;;;;;;;0.21;61.47;100847.59;1770015;79;21343;-54
2022/01/09 02:29:35;;;;;;;;;;;;;;;0.14;62.32;100842.23;1772861;81;21216;-53
2022/01/09 02:32:41;;;;;;;14.13;6.35;;;;;;;0.14;63.15;100838.20;1769256;81;20210;-54
2022/01/09 02:35:46;;;;;;;14.70;6.95;;;;;;;0.15;63.90;100826.45;1769542;79;21582;-53
2022/01/09 02:38:53;;;;;;;18.90;7.25;;;;;;;0.18;64.55;100823.56;1769312;81;21180;-54
2022/01/09 02:41:57;;;;;;;13.58;6.25;;;;;;;0.11;65.11;100812.83;1770089;79;21193;-54
2022/01/09 02:45:04;;;;;;;15.48;6.75;;;;;;;0.09;65.74;100813.41;1769981;80;21162;-54
2022/01/09 02:48:10;;;;;;;16.48;6.87;;;;;;;0.10;66.23;100807.05;1770507;81;21184;-53
2022/01/09 02:51:18;;;;;;;14.18;6.30;;;;;;;0.11;66.55;100803.41;1770518;79;21255;-54
2022/01/09 02:57:55;;;;;;;12.98;6.12;;;;;;;0.11;66.92;100795.34;1771354;80;21205;-53
2022/01/09 03:01:04;;;;;;;14.90;6.45;;;;;;;0.11;67.02;100795.34;1771067;79;21725;-52
2022/01/09 03:04:09;;;;;;;11.68;6.03;;;;;;;0.05;66.96;100788.14;1770885;80;21244;-54
2022/01/09 03:07:18;;;;;;;11.08;5.97;;;;;;;0.04;67.10;100785.92;1769619;80;21189;-53
2022/01/09 03:10:24;;;;;;;12.53;5.53;;;;;;;-0.04;67.06;100782.86;1771406;79;21220;-52
2022/01/09 03:13:32;;;;;;;13.35;6.17;;;;;;;-0.04;67.42;100779.70;1770802;80;21737;-53
2022/01/09 03:16:40;;;;;;;17.60;7.17;;;;;;;-0.07;67.52;100776.34;1770723;79;21221;-52
2022/01/09 03:19:49;;;;;;;10.68;6.30;;;;;;;-0.07;67.86;100769.14;1771046;80;21193;-53
2022/01/09 03:22:55;;;;;;;14.47;6.72;;;;;;;-0.08;67.90;100768.73;1764087;81;21205;-53
2022/01/09 03:26:02;;;;;;;12.82;5.75;;;;;;;-0.11;68.02;100766.25;1771307;79;21318;-53
2022/01/09 03:29:09;;;;;;;13.58;6.15;;;;;;;-0.11;68.21;100758.65;1770735;81;21247;-54
2022/01/09 03:32:15;;;;;;;12.18;6.53;;;;;;;-0.25;68.40;100764.94;1770988;79;21224;-53
2022/01/09 03:35:23;;;;;;;13.32;6.22;;;;;;;-0.31;68.83;100756.39;1771126;79;21225;-53
2022/01/09 03:38:29;;;;;;;13.38;7.20;;;;;;;-0.31;69.21;100762.65;1770909;81;21197;-54
2022/01/09 03:41:35;;;;;;;11.83;6.30;;;;;;;-0.27;69.53;100758.78;1770791;79;21448;-53
2022/01/09 03:44:40;;;;;;;16.57;6.83;;;;;;;-0.18;69.69;100757.34;1770741;81;21198;-53
2022/01/09 03:47:46;;;;;;;14.65;7.35;;;;;;;-0.09;69.74;100762.11;1771727;80;21259;-53
2022/01/09 03:50:58;;;;;;;12.55;6.85;;;;;;;-0.02;69.72;100759.42;1770724;79;21203;-54
2022/01/09 03:54:04;;;;;;;11.95;6.47;;;;;;;0.02;69.60;100753.36;1770807;80;21295;-53
2022/01/09 03:57:11;;;;;;;10.15;6.08;;;;;;;0.06;69.55;100742.77;1770661;79;21706;-53
2022/01/09 04:00:20;;;;;;;15.13;6.25;;;;;;;0.00;69.51;100742.70;1771189;79;21192;-54
2022/01/09 04:03:26;;;;;;;12.40;6.20;;;;;;;-0.02;69.67;100735.20;1771475;80;21232;-54
2022/01/09 04:06:35;;;;;;;12.95;6.35;;;;;;;-0.04;69.78;100731.27;1769697;79;21681;-54
2022/01/09 04:09:44;;;;;;;11.60;6.35;;;;;;;-0.04;69.91;100725.89;1770740;80;21714;-53
2022/01/09 04:12:58;;;;;;;10.98;5.83;;;;;;;-0.02;70.03;100725.79;1770952;80;21193;-54
2022/01/09 04:15:59;;;;;;;10.03;5.83;;;;;;;-0.03;70.10;100718.19;1771168;79;21194;-52
2022/01/09 04:19:12;;;;;;;12.00;6.17;;;;;;;-0.09;70.17;100711.00;1770538;81;21189;-52
2022/01/09 04:22:15;;;;;;;12.35;5.47;;;;;;;-0.12;70.27;100704.48;1770565;79;21283;-53
2022/01/09 04:25:23;;;;;;;10.82;5.67;;;;;;;-0.15;70.44;100704.68;1770636;79;21339;-53
2022/01/09 04:28:31;;;;;;;12.60;6.50;;;;;;;-0.13;70.65;100705.45;1764632;80;21347;-53
2022/01/09 04:31:38;;;;;;;11.57;5.50;;;;;;;-0.14;70.71;100702.36;1770962;79;21221;-55
2022/01/09 04:34:44;;;;;;;10.00;5.75;;;;;;;-0.12;70.83;100697.75;1770680;80;21221;-55
2022/01/09 04:37:51;;;;;;;14.15;6.00;;;;;;;-0.12;70.81;100696.41;1770724;80;21485;-54
2022/01/09 04:40:58;;;;;;;9.83;5.58;;;;;;;-0.10;70.85;100699.39;1771281;79;21213;-53
2022/01/09 04:44:05;;;;;;;11.80;5.92;;;;;;;-0.10;70.92;100697.18;1770711;81;21185;-53
2022/01/09 04:47:15;;;;;;;12.05;6.53;;;;;;;-0.15;70.94;100693.92;1770693;79;21257;-55
2022/01/09 04:50:25;;;;;;;10.82;5.78;;;;;;;-0.17;71.16;100690.45;1770786;79;21355;-54
2022/01/09 04:53:29;;;;;;;11.85;6.35;;;;;;;-0.19;71.23;100674.42;1764140;81;21706;-54
2022/01/09 04:56:36;;;;;;;10.68;6.08;;;;;;;-0.31;71.21;100671.20;1770651;79;21302;-53
2022/01/09 04:59:41;;;;;;;10.88;6.42;;;;;;;-0.41;71.45;100680.83;1770802;81;21201;-54
2022/01/09 05:02:50;;;;;;;12.95;7.40;;;;;;;-0.46;71.77;100677.56;1770729;80;21305;-55
2022/01/09 05:05:57;;;;;;;13.05;7.28;;;;;;;-0.38;72.07;100671.72;1770827;79;21970;-54
2022/01/09 05:09:04;;;;;;;14.93;6.90;;;;;;;-0.31;72.20;100669.86;1770393;79;21202;-52
2022/01/09 05:12:11;;;;;;;12.33;7.08;;;;;;;-0.20;72.25;100661.08;1770934;79;21336;-53
2022/01/09 05:15:19;;;;;;;12.73;7.35;;;;;;;-0.17;72.01;100662.22;1771740;79;21201;-53
2022/01/09 05:18:25;;;;;;;13.95;7.37;;;;;;;-0.12;72.10;100660.96;1770871;80;21821;-53
2022/01/09 05:21:31;;;;;;;15.03;6.75;;;;;;;-0.07;71.96;100653.92;1770669;79;21378;-53
2022/01/09 05:24:39;;;;;;;15.25;7.28;;;;;;;-0.09;71.79;100655.84;1770899;81;21367;-55
2022/01/09 05:27:45;;;;;;;13.85;6.95;;;;;;;-0.08;71.90;100653.56;1770908;80;21197;-53
2022/01/09 05:30:51;;;;;;;14.98;8.63;;;;;;;-0.01;72.00;100658.89;1771811;79;21251;-54
2022/01/09 05:33:57;;;;;;;18.48;8.30;;;;;;;0.05;71.96;100654.44;1771001;80;21185;-53
2022/01/09 05:37:06;;;;;;;14.33;8.00;;;;;;;0.10;71.89;100647.39;1770961;79;21244;-53
2022/01/09 05:40:15;;;;;;;12.07;6.75;;;;;;;0.00;71.54;100639.95;1771868;79;21218;-53
2022/01/09 05:43:21;;;;;;;11.73;7.03;;;;;;;-0.04;71.85;100630.84;1771725;80;21524;-54
2022/01/09 05:46:35;;;;;;;14.43;7.40;;;;;;;0.00;72.04;100632.39;1770996;79;21414;-53
2022/01/09 05:49:40;;;;;;;13.75;7.55;;;;;;;0.07;72.06;100625.61;1770963;80;21188;-53
2022/01/09 05:52:50;;;;;;;12.68;7.05;;;;;;;0.14;72.04;100621.55;1770878;81;21210;-55
2022/01/09 05:55:55;;;;;;;14.38;7.67;;;;;;;0.19;71.93;100623.41;1764056;79;21346;-53
2022/01/09 05:59:02;;;;;;;16.00;7.92;;;;;;;0.15;71.71;100620.56;1770879;80;21189;-52
2022/01/09 06:02:11;;;;;;;18.57;7.87;;;;;;;0.11;71.70;100610.99;1771261;79;22058;-53
2022/01/09 06:05:17;;;;;;;18.98;8.88;;;;;;;0.06;71.81;100611.78;1771541;79;21204;-53
2022/01/09 06:08:23;;;;;;;19.82;7.35;;;;;;;-0.02;72.10;100616.81;1770801;81;21979;-53
2022/01/09 06:11:28;;;;;;;15.78;6.67;;;;;;;-0.05;72.59;100618.38;1770752;79;21781;-53
2022/01/09 06:14:34;;;;;;;17.87;8.40;;;;;;;-0.11;72.94;100614.72;1771371;80;21185;-55
2022/01/09 06:17:50;;;;;;;15.98;8.13;;;;;;;-0.17;73.33;100611.11;1770228;81;21220;-54
2022/01/09 06:21:01;;;;;;;17.12;7.50;;;;;;;-0.14;73.72;100628.38;1770965;79;21209;-53
2022/01/09 06:24:05;;;;;;;14.43;6.55;;;;;;;-0.12;74.00;100613.02;1771066;80;21228;-54
2022/01/09 06:27:13;;;;;;;14.65;6.72;;;;;;;-0.05;74.24;100603.07;1770758;79;21294;-53
2022/01/09 06:30:20;;;;;;;14.28;7.25;;;;;;;0.00;74.31;100594.72;1770693;79;21738;-54
2022/01/09 06:33:28;;;;;;;17.32;8.33;;;;;;;0.02;74.22;100600.83;1770832;80;21232;-54
2022/01/09 06:36:34;;;;;;;15.32;7.75;;;;;;;0.07;74.33;100604.55;1770978;79;21224;-54
2022/01/09 06:39:40;;;;;;;15.85;7.37;;;;;;;0.14;74.32;100601.83;1770837;80;21707;-54
2022/01/09 06:42:47;;;;;;;12.88;7.10;;;;;;;0.14;74.04;100601.36;1770734;80;21316;-55
2022/01/09 06:45:55;;;;;;;17.85;7.40;;;;;;;0.13;73.78;100608.19;1770946;79;21217;-53
2022/01/09 06:49:01;;;;;;;16.42;7.90;;;;;;;0.12;73.68;100607.32;1771727;80;21197;-54
2022/01/09 06:52:09;;;;;;;14.87;6.87;;;;;;;0.12;73.42;100601.06;1769373;79;21249;-54
2022/01/09 06:55:16;;;;;;;17.27;7.37;;;;;;;0.08;73.48;100593.67;1740288;81;21209;-54
2022/01/09 06:58:23;;;;;;;12.00;6.95;;;;;;;0.16;73.46;100579.22;1733761;82;21280;-55
2022/01/09 07:01:28;;;;;;;12.53;6.78;;;;;;;0.19;73.07;100576.31;1740029;81;21252;-54
2022/01/09 07:04:34;;;;;;;16.97;7.12;;;;;;;0.21;72.86;100574.38;1741257;82;21343;-54
2022/01/09 07:07:41;;;;;;;14.18;6.78;;;;;;;0.21;72.74;100560.92;1740399;82;21859;-54
2022/01/09 07:10:49;;;;;;;10.18;5.72;;;;;;;0.27;72.54;100556.45;1739966;79;21240;-54
2022/01/09 07:13:55;;;;;;;14.63;6.87;;;;;;;0.33;72.47;100553.83;1740594;82;21208;-54
2022/01/09 07:17:01;;;;;;;14.28;6.58;;;;;;;0.37;72.12;100553.51;1739822;81;21299;-54
2022/01/09 07:20:07;;;;;;;13.45;6.95;;;;;;;0.33;71.96;100543.94;1733304;82;21189;-55
2022/01/09 07:23:13;;;;;;;17.77;7.03;;;;;;;0.32;72.03;100523.34;1739897;82;21248;-55
2022/01/09 07:26:18;;;;;;;13.93;7.03;;;;;;;0.34;72.33;100521.42;1739945;81;21228;-54
2022/01/09 07:29:23;;;;;;;15.72;7.55;;;;;;;0.37;72.44;100518.50;1739985;82;21187;-55
2022/01/09 07:32:29;;;;;;;19.50;11.00;;;;;;;0.29;72.56;100513.27;1740398;81;21437;-54
2022/01/09 07:35:35;;;;;;;55.23;26.55;;;;;;;0.30;72.93;100513.20;1740451;81;21354;-53
2022/01/09 07:38:41;;;;;;;33.18;17.82;;;;;;;0.36;73.09;100516.80;1740317;82;21448;-55
2022/01/09 07:41:46;;;;;;;32.20;16.80;;;;;;;0.36;73.14;100506.50;1740374;81;21224;-54
2022/01/09 07:44:53;;;;;;;23.55;12.93;;;;;;;0.35;73.32;100505.63;1740559;82;21406;-54
2022/01/09 07:48:00;;;;;;;18.32;9.18;;;;;;;0.40;73.49;100508.86;1740179;82;21306;-54
2022/01/09 07:51:08;;;;;;;19.10;8.10;;;;;;;0.47;73.42;100506.13;1753792;81;21327;-54
2022/01/09 07:54:17;;;;;;;15.45;8.15;;;;;;;0.55;73.41;100507.79;1770732;81;21311;-53
2022/01/09 07:57:24;;;;;;;17.17;7.80;;;;;;;0.61;73.28;100515.90;1770781;81;21312;-54
2022/01/09 08:00:32;;;;;;;15.43;7.30;;;;;;;0.66;73.34;100513.27;1770950;80;22285;-53
2022/01/09 08:03:39;;;;;;;20.77;8.10;;;;;;;0.72;73.10;100508.77;1770504;81;21825;-54
2022/01/09 08:06:46;;;;;;;16.80;8.80;;;;;;;0.83;73.35;100506.16;1770944;80;21216;-54
2022/01/09 08:09:51;;;;;;;23.52;10.90;;;;;;;0.99;73.01;100489.25;1770940;80;21304;-55
2022/01/09 08:12:56;;;;;;;28.50;17.27;;;;;;;1.09;72.72;100486.27;1770937;79;21217;-54
2022/01/09 08:16:02;;;;;;;19.17;11.70;;;;;;;1.18;72.31;100479.30;1770638;80;21296;-56
2022/01/09 08:19:07;;;;;;;22.55;12.13;;;;;;;1.20;72.13;100466.11;1770305;80;21347;-54
2022/01/09 08:22:13;;;;;;;16.37;9.30;;;;;;;1.23;71.98;100455.09;1769808;80;21587;-54
2022/01/09 08:25:21;;;;;;;13.48;7.15;;;;;;;1.33;72.02;100447.16;1769799;80;21198;-55
2022/01/09 08:28:26;;;;;;;15.78;8.13;;;;;;;1.40;71.87;100442.53;1762800;80;21288;-55
2022/01/09 08:31:32;;;;;;;21.68;12.25;;;;;;;1.47;71.63;100429.44;1770294;80;21371;-55
2022/01/09 08:34:38;;;;;;;33.90;16.62;;;;;;;1.46;71.26;100436.66;1770251;80;21158;-56
2022/01/09 08:37:44;;;;;;;20.80;10.53;;;;;;;1.34;71.14;100429.52;1770508;80;21857;-56
2022/01/09 08:40:52;;;;;;;18.12;8.30;;;;;;;1.30;71.40;100422.63;1762728;80;21718;-54
2022/01/09 08:43:57;;;;;;;11.90;7.58;;;;;;;1.33;71.40;100427.78;1770631;80;21309;-54
2022/01/09 08:47:07;;;;;;;12.00;7.20;;;;;;;1.30;71.13;100417.74;1770626;80;21868;-55
2022/01/09 08:50:18;;;;;;;16.48;8.73;;;;;;;1.24;71.38;100417.70;1770860;80;21328;-55
2022/01/09 08:53:25;;;;;;;27.73;12.20;;;;;;;1.25;71.36;100418.06;1771761;80;21786;-54
2022/01/09 08:56:36;;;;;;;23.20;10.30;;;;;;;1.26;71.55;100416.23;1771904;79;21777;-55
2022/01/09 08:59:40;;;;;;;16.85;7.85;;;;;;;1.36;71.71;100407.32;1770403;79;21331;-55
2022/01/09 09:02:47;;;;;;;15.38;7.62;;;;;;;1.38;71.58;100399.98;1720117;82;21199;-55
2022/01/09 09:05:54;;;;;;;13.35;7.30;;;;;;;1.39;71.67;100394.11;1769704;81;21185;-54
2022/01/09 09:08:59;;;;;;;15.58;8.15;;;;;;;1.51;71.70;100380.53;1771867;80;21189;-55
2022/01/09 09:12:04;;;;;;;26.12;14.60;;;;;;;1.61;71.56;100377.98;1772222;79;21371;-54
2022/01/09 09:15:12;;;;;;;27.35;11.08;;;;;;;1.72;71.49;100367.69;1718457;82;21252;-55
2022/01/09 09:18:19;;;;;;;27.70;10.32;;;;;;;1.86;71.31;100361.58;1718220;83;21599;-55
2022/01/09 09:21:25;;;;;;;23.73;9.25;;;;;;;1.93;70.96;100365.52;1711650;82;21627;-54
2022/01/09 09:24:30;;;;;;;15.83;8.13;;;;;;;2.02;70.79;100350.41;1728225;83;21204;-54
2022/01/09 09:27:37;;;;;;;17.73;8.58;;;;;;;2.14;70.57;100344.05;1706073;83;21178;-53
2022/01/09 09:30:42;;;;;;;21.65;11.45;;;;;;;2.27;70.22;100346.10;1729147;82;21836;-54
2022/01/09 09:33:48;;;;;;;23.85;11.33;;;;;;;2.26;69.59;100345.75;1706223;84;21861;-55
2022/01/09 09:36:53;;;;;;;15.93;8.75;;;;;;;2.24;69.35;100343.17;1703793;83;21221;-56
2022/01/09 09:39:59;;;;;;;17.42;9.05;;;;;;;2.18;69.19;100340.97;1729930;83;21350;-55
2022/01/09 09:43:07;;;;;;;17.02;8.80;;;;;;;2.17;69.10;100343.80;1707088;84;21340;-55
2022/01/09 09:46:14;;;;;;;16.23;8.35;;;;;;;2.12;69.30;100344.66;1730090;82;21374;-55
2022/01/09 09:49:19;;;;;;;16.23;7.97;;;;;;;2.08;69.24;100335.10;1717515;83;21234;-55
2022/01/09 09:52:25;;;;;;;19.32;10.25;;;;;;;1.96;69.24;100336.94;1703567;83;21333;-55
2022/01/09 09:55:32;;;;;;;27.95;13.38;;;;;;;1.93;69.51;100330.92;1724332;83;21284;-55
2022/01/09 09:58:40;;;;;;;19.85;10.82;;;;;;;1.84;69.56;100331.66;1703675;84;21297;-54
2022/01/09 10:01:46;;;;;;;15.65;8.13;;;;;;;1.79;69.98;100332.52;1724660;83;21232;-54
2022/01/09 10:05:10;;;;;;;16.75;8.18;;;;;;;1.84;70.02;100341.11;1689444;84;21259;-54
2022/01/09 10:08:19;;;;;;;14.50;8.08;;;;;;;1.79;70.05;100333.38;1723386;83;21723;-55
2022/01/09 10:11:24;;;;;;;15.23;7.70;;;;;;;1.69;70.10;100329.68;1718436;82;21774;-54
2022/01/09 10:14:36;;;;;;;17.02;9.60;;;;;;;1.65;70.43;100324.66;1694710;82;21574;-55
2022/01/09 10:17:42;;;;;;;18.07;9.30;;;;;;;1.58;70.43;100326.11;1665605;86;21752;-56
2022/01/09 10:20:51;;;;;;;14.58;8.20;;;;;;;1.54;71.02;100323.65;1639101;86;21275;-54
2022/01/09 10:24:12;;;;;;;13.70;7.72;;;;;;;1.57;71.39;100320.35;1661430;86;21224;-54
2022/01/09 10:27:17;;;;;;;16.85;8.73;;;;;;;1.60;71.67;100313.36;1664418;86;21235;-54
2022/01/09 10:30:23;;;;;;;14.83;8.98;;;;;;;1.58;72.08;100315.31;1663809;85;21275;-54
2022/01/09 10:33:37;;;;;;;13.32;8.75;;;;;;;1.68;72.58;100317.19;1655573;86;21997;-54
2022/01/09 10:36:54;;;;;;;;;;;;;;;1.72;72.65;100313.25;1662846;84;21574;-54
2022/01/09 10:40:00;;;;;;;14.60;8.00;;;;;;;1.79;73.16;100314.50;1658936;86;20215;-56
2022/01/09 10:43:23;;;;;;;16.12;8.40;;;;;;;1.87;73.06;100313.36;1647265;86;21786;-54
2022/01/09 10:46:32;;;;;;;18.87;8.48;;;;;;;1.87;73.14;100312.02;1638304;86;21232;-55
2022/01/09 10:49:57;;;;;;;14.58;8.13;;;;;;;1.89;73.18;100305.17;1654821;84;21223;-55
2022/01/09 10:53:29;;;;;;;13.15;7.15;;;;;;;1.80;73.49;100300.48;1714086;82;22020;-54
2022/01/09 10:56:34;;;;;;;17.73;10.25;;;;;;;1.79;73.85;100292.03;1713641;81;21546;-55
2022/01/09 10:59:40;;;;;;;21.37;11.57;;;;;;;1.83;74.09;100284.91;1701870;83;21203;-55
2022/01/09 11:02:46;;;;;;;25.57;12.82;;;;;;;1.90;74.26;100283.94;1715235;83;21281;-55
2022/01/09 11:05:52;;;;;;;20.40;10.10;;;;;;;1.97;74.47;100274.34;1717196;82;21285;-55
2022/01/09 11:08:58;;;;;;;16.57;9.00;;;;;;;2.06;74.51;100276.31;1682741;84;21206;-55
2022/01/09 11:12:04;;;;;;;14.25;8.60;;;;;;;2.12;74.66;100271.28;1686191;82;21218;-55
2022/01/09 11:15:12;;;;;;;13.32;8.98;;;;;;;2.17;74.66;100270.39;1711273;78;21209;-55
2022/01/09 11:18:20;;;;;;;17.95;10.72;;;;;;;2.24;74.69;100264.86;1761601;80;21280;-55
2022/01/09 11:21:29;;;;;;;15.70;9.25;;;;;;;2.27;74.64;100255.64;1768737;79;21780;-55
2022/01/09 11:25:13;;;;;;;17.85;8.38;;;;;;;2.22;74.53;100257.89;1769652;80;21181;-55
2022/01/09 11:28:28;;;;;;;18.50;8.90;;;;;;;2.20;74.68;100272.87;1769330;80;21197;-55
2022/01/09 11:31:48;;;;;;;14.28;8.18;;;;;;;2.17;74.82;100265.50;1770534;79;21225;-55
2022/01/09 11:35:21;;;;;;;15.80;9.35;;;;;;;2.17;75.09;100263.63;1764343;80;21224;-55
2022/01/09 11:39:12;;;;;;;16.13;8.30;;;;;;;2.21;75.23;100254.80;1770955;80;21722;-55
2022/01/09 11:42:21;;;;;;;15.32;8.13;;;;;;;2.28;75.45;100265.48;1762632;80;21299;-55
2022/01/09 11:45:29;;;;;;;15.72;8.15;;;;;;;2.30;75.53;100262.16;1739872;81;21197;-55
2022/01/09 11:49:01;;;;;;;12.73;7.35;;;;;;;2.34;75.58;100263.61;1739404;82;21710;-56
2022/01/09 11:52:08;;;;;;;13.83;7.42;;;;;;;2.34;75.50;100252.81;1739577;81;21300;-56
2022/01/09 11:55:14;;;;;;;10.13;6.37;;;;;;;2.31;75.73;100253.06;1739970;81;21219;-56
2022/01/09 11:58:22;;;;;;;15.53;8.55;;;;;;;2.37;75.84;100252.06;1739224;82;21188;-56
2022/01/09 12:01:42;;;;;;;15.50;9.25;;;;;;;2.43;76.03;100252.03;1739209;81;21190;-56
2022/01/09 12:04:53;;;;;;;13.95;7.72;;;;;;;2.47;75.87;100248.11;1739374;82;21201;-55
2022/01/09 12:08:06;;;;;;;14.15;8.30;;;;;;;2.43;75.78;100232.64;1738820;82;21573;-55
2022/01/09 12:11:13;;;;;;;13.35;8.50;;;;;;;2.32;75.72;100231.33;1739274;81;21185;-54
2022/01/09 12:14:20;;;;;;;14.93;9.15;;;;;;;2.28;75.93;100226.32;1732865;82;21247;-56
2022/01/09 12:17:42;;;;;;;15.90;8.20;;;;;;;2.22;76.15;100225.48;1740019;80;21666;-55
2022/01/09 12:20:49;;;;;;;14.20;7.50;;;;;;;2.24;76.43;100218.95;1739634;81;21284;-55
2022/01/09 12:23:56;;;;;;;15.05;7.92;;;;;;;2.29;76.75;100209.12;1740483;82;21386;-55
2022/01/09 12:27:02;;;;;;;15.20;8.35;;;;;;;2.31;76.94;100211.20;1744330;81;21201;-55
2022/01/09 12:30:07;;;;;;;15.25;8.83;;;;;;;2.32;77.01;100214.27;1750138;80;21202;-55
2022/01/09 12:33:18;;;;;;;13.13;8.30;;;;;;;2.31;77.14;100208.51;1756242;81;21181;-56
2022/01/09 12:36:27;;;;;;;14.65;9.05;;;;;;;2.35;77.38;100215.35;1749064;80;21716;-55
2022/01/09 12:39:34;;;;;;;16.40;8.55;;;;;;;2.37;77.34;100216.09;1752629;80;21738;-55
2022/01/09 12:42:39;;;;;;;13.53;8.43;;;;;;;2.37;77.24;100219.66;1750232;80;21202;-57
2022/01/09 12:45:46;;;;;;;16.27;8.33;;;;;;;2.31;77.28;100217.48;1756929;80;21212;-57
2022/01/09 12:49:07;;;;;;;12.65;8.85;;;;;;;2.21;77.28;100211.12;1740780;81;21200;-56
2022/01/09 12:52:15;;;;;;;13.45;8.55;;;;;;;2.13;77.64;100197.88;1729261;83;21792;-56
2022/01/09 12:55:20;;;;;;;14.78;9.00;;;;;;;2.17;78.00;100208.28;1746452;80;21173;-56
2022/01/09 12:58:31;;;;;;;16.12;8.75;;;;;;;2.20;78.17;100200.45;1746274;80;21182;-56
2022/01/09 13:01:39;;;;;;;18.25;9.55;;;;;;;2.20;78.29;100195.05;1767990;80;21256;-56
2022/01/09 13:04:46;;;;;;;21.85;9.73;;;;;;;2.21;78.41;100194.05;1768657;79;21236;-56
2022/01/09 13:07:52;;;;;;;17.02;11.03;;;;;;;2.22;78.63;100193.08;1754049;80;21749;-56
2022/01/09 13:11:09;;;;;;;18.82;10.10;;;;;;;2.25;78.84;100196.36;1739023;81;21395;-55
2022/01/09 13:14:15;;;;;;;19.73;10.03;;;;;;;2.30;78.96;100193.30;1738657;81;21766;-55
2022/01/09 13:17:23;;;;;;;15.95;9.88;;;;;;;2.29;78.99;100183.47;1738876;81;21210;-56
2022/01/09 13:20:31;;;;;;;15.03;9.58;;;;;;;2.29;79.09;100183.47;1738554;81;21706;-55
2022/01/09 13:23:39;;;;;;;16.32;10.28;;;;;;;2.33;79.35;100177.67;1738722;82;21212;-55
2022/01/09 13:26:59;;;;;;;16.65;9.50;;;;;;;2.39;79.36;100178.53;1739259;81;21320;-55
2022/01/09 13:30:05;;;;;;;17.25;9.40;;;;;;;2.39;79.24;100174.97;1739812;82;21319;-57
2022/01/09 13:33:11;;;;;;;15.95;8.78;;;;;;;2.36;79.36;100167.96;1740072;82;21334;-55
2022/01/09 13:36:34;;;;;;;13.93;8.50;;;;;;;2.39;79.42;100167.73;1739894;81;21280;-54
2022/01/09 13:39:40;;;;;;;13.40;8.73;;;;;;;2.37;79.26;100175.58;1739849;82;21789;-54
2022/01/09 13:42:46;;;;;;;14.65;8.60;;;;;;;2.36;79.38;100173.88;1739625;82;21233;-56
2022/01/09 13:45:53;;;;;;;12.53;8.48;;;;;;;2.29;79.43;100155.98;1739935;81;21216;-56
2022/01/09 13:48:58;;;;;;;14.23;9.25;;;;;;;2.31;79.79;100165.30;1764518;81;21189;-55
2022/01/09 13:52:05;;;;;;;16.32;10.50;;;;;;;2.37;79.99;100156.19;1769486;79;21220;-56
2022/01/09 13:55:18;;;;;;;36.03;19.40;;;;;;;2.42;79.99;100151.75;1769372;81;21188;-57
2022/01/09 13:58:24;;;;;;;40.33;21.55;;;;;;;2.43;80.04;100153.45;1767087;80;21184;-56
2022/01/09 14:01:54;;;;;;;31.02;18.98;;;;;;;2.45;80.06;100165.86;1744614;81;21252;-56
2022/01/09 14:05:20;;;;;;;22.10;12.78;;;;;;;2.46;79.86;100160.80;1765364;81;21177;-56
2022/01/09 14:08:26;;;;;;;16.05;10.55;;;;;;;2.47;79.97;100169.77;1756360;80;21855;-55
2022/01/09 14:11:31;;;;;;;16.52;10.93;;;;;;;2.48;80.03;100166.08;1766630;79;21192;-60
2022/01/09 14:14:40;;;;;;;57.78;26.68;;;;;;;2.50;79.97;100158.70;1765915;81;21594;-54
2022/01/09 14:17:52;;;;;;;48.65;24.70;;;;;;;2.52;80.11;100154.04;1768882;80;21177;-55
2022/01/09 14:21:08;;;;;;;50.78;27.40;;;;;;;2.56;80.15;100159.53;1768860;80;21652;-55
2022/01/09 14:24:15;;;;;;;30.00;18.27;;;;;;;2.61;80.27;100163.56;1762987;81;21244;-54
2022/01/09 14:27:19;;;;;;;26.12;16.25;;;;;;;2.66;80.14;100157.77;1762298;81;21208;-55
2022/01/09 14:30:52;;;;;;;18.12;11.20;;;;;;;2.67;80.15;100152.23;1769509;81;21193;-55
2022/01/09 14:34:00;;;;;;;31.95;18.73;;;;;;;2.68;80.05;100155.28;1769922;80;21718;-56